Latest Weather Observations for Bickley

IDW60801

Issued at 7:33 pm WST Thursday 23 February 2017 (issued every 30 minutes, with the page automatically refreshed every 10 minutes)

About weather observations | Map of weather stations | Latest weather observations for WA | Other Formats
Station Details ID: 009240 Name: BICKLEY Lat: -32.01 Lon: 116.14 Height: 384.0 m
Data from the previous 72 hours. | See also: Recent months at Bickley
Date/Time
WST
Temp
°C
App
Temp
°C
Dew
Point
°C
Rel
Hum
%
Delta-T
°C
Wind Press
QNH
hPa
Press
MSL
hPa
Rain since
9am
mm
Dir  Spd
km/h
Gust
km/h
Spd
kts
Gust
kts
23/07:30pm 23.1 19.9 6.8 35 8.6 ESE 13 20 7 11 - - 0.0
23/07:00pm 24.0 20.8 6.7 33 9.1 ESE 13 20 7 11 - - 0.0
23/06:30pm 25.4 22.7 7.5 32 9.6 ESE 11 15 6 8 - - 0.0
23/06:00pm 27.2 25.1 8.1 30 10.5 ESE 9 17 5 9 - - 0.0
23/05:30pm 28.3 25.9 7.0 26 11.6 ESE 9 17 5 9 - - 0.0
23/05:00pm 28.6 25.9 7.2 26 11.7 SE 11 17 6 9 - - 0.0
23/04:30pm 28.8 26.0 6.8 25 11.9 E 11 22 6 12 - - 0.0
23/04:00pm 29.2 27.4 9.3 29 11.3 SE 9 17 5 9 - - 0.0
23/03:30pm 29.5 27.1 8.5 27 11.8 E 11 22 6 12 - - 0.0
23/03:00pm 29.1 27.6 9.3 29 11.2 E 7 17 4 9 - - 0.0
23/02:30pm 28.1 25.6 8.4 29 10.9 ESE 11 20 6 11 - - 0.0
23/02:00pm 28.7 26.8 10.4 32 10.5 ENE 11 17 6 9 - - 0.0
23/01:30pm 26.9 25.1 9.3 33 9.9 ESE 9 20 5 11 - - 0.0
23/01:00pm 26.6 24.3 9.0 33 9.8 E 11 20 6 11 - - 0.0
23/12:30pm 25.9 24.1 9.3 35 9.2 E 9 17 5 9 - - 0.0
23/12:00pm 25.4 23.0 8.8 35 9.1 E 11 22 6 12 - - 0.0
23/11:30am 25.3 23.3 11.5 42 8.0 E 13 22 7 12 - - 0.0
23/11:00am 24.0 21.9 11.0 44 7.4 ENE 13 26 7 14 - - 0.0
23/10:30am 22.9 20.9 11.6 49 6.5 ENE 13 24 7 13 - - 0.0
23/10:00am 21.9 19.8 12.5 55 5.4 ENE 15 24 8 13 - - 0.0
23/09:30am 20.7 17.9 12.7 60 4.6 ENE 19 30 10 16 - - 0.0
23/09:00am 19.6 16.6 12.1 62 4.3 ENE 19 32 10 17 - - 0.0
23/08:30am 18.6 16.2 12.8 69 3.3 ENE 17 26 9 14 - - 0.0
23/08:00am 16.9 14.9 12.8 77 2.3 E 15 26 8 14 - - 0.0
23/07:30am 15.8 14.0 13.3 85 1.4 ESE 15 24 8 13 - - 0.0
23/07:00am 14.0 11.5 12.2 89 1.0 E 17 26 9 14 - - 0.0
23/06:30am 13.0 10.6 11.4 90 0.9 ESE 15 22 8 12 - - 0.0
23/06:00am 12.9 10.5 11.3 90 0.9 ESE 15 22 8 12 - - 0.0
23/05:30am 12.8 10.3 11.0 89 1.0 ESE 15 22 8 12 - - 0.0
23/05:00am 12.9 10.4 11.0 88 1.0 ESE 15 22 8 12 - - 0.0
23/04:30am 12.8 10.3 10.9 88 1.0 ESE 15 20 8 11 - - 0.0
23/04:00am 13.0 10.5 10.9 87 1.1 ESE 15 22 8 12 - - 0.0
23/03:30am 13.1 10.5 10.8 86 1.2 ESE 15 20 8 11 - - 0.0
23/03:00am 13.3 10.7 10.8 85 1.3 ESE 15 20 8 11 - - 0.0
23/02:30am 13.5 11.4 11.0 85 1.3 ESE 13 17 7 9 - - 0.0
23/02:00am 13.9 11.8 11.2 84 1.5 SE 13 20 7 11 - - 0.0
23/01:30am 13.9 11.5 11.4 85 1.4 SSE 15 20 8 11 - - 0.0
23/01:00am 14.0 11.6 11.5 85 1.4 SSE 15 20 8 11 - - 0.0
23/12:30am 13.9 11.5 11.4 85 1.4 SSE 15 22 8 12 - - 0.0
23/12:00am 14.2 11.9 11.7 85 1.4 SSE 15 22 8 12 - - 0.0
 
Date/Time
WST
Temp
°C
App
Temp
°C
Dew
Point
°C
Rel
Hum
%
Delta-T
°C
Wind Press
QNH
hPa
Press
MSL
hPa
Rain since
9am
mm
Dir  Spd
km/h
Gust
km/h
Spd
kts
Gust
kts
22/11:30pm 14.3 11.3 11.8 85 1.4 SSE 19 26 10 14 - - 0.0
22/11:00pm 14.2 11.9 11.7 85 1.4 SSE 15 22 8 12 - - 0.0
22/10:30pm 14.3 11.6 11.6 84 1.5 S 17 24 9 13 - - 0.0
22/10:00pm 14.6 12.3 11.7 83 1.6 S 15 24 8 13 - - 0.0
22/09:30pm 14.8 12.5 11.8 82 1.6 SSW 15 26 8 14 - - 0.0
22/09:00pm 15.2 12.9 11.8 80 1.9 SSW 15 22 8 12 - - 0.0
22/08:30pm 15.5 13.1 11.5 77 2.2 SSW 15 24 8 13 - - 0.0
22/08:00pm 16.0 13.2 11.4 74 2.5 SW 17 26 9 14 - - 0.0
22/07:30pm 16.7 14.2 11.2 70 3.0 SW 15 22 8 12 - - 0.0
22/07:00pm 17.9 15.4 11.2 65 3.7 SW 15 26 8 14 - - 0.0
22/06:30pm 19.0 16.9 11.1 60 4.4 SW 13 22 7 12 - - 0.0
22/06:00pm 20.3 18.2 11.2 56 5.1 SW 13 24 7 13 - - 0.0
22/05:30pm 21.1 18.6 10.9 52 5.7 SW 15 24 8 13 - - 0.0
22/05:00pm 21.9 19.8 11.0 50 6.1 SW 13 22 7 12 - - 0.0
22/04:30pm 22.0 19.8 10.8 49 6.3 SSW 13 20 7 11 - - 0.0
22/04:00pm 22.5 20.7 10.9 48 6.5 SW 11 24 6 13 - - 0.0
22/03:30pm 21.8 19.5 10.3 48 6.4 SW 13 24 7 13 - - 0.0
22/03:00pm 22.0 20.0 10.2 47 6.5 SW 11 17 6 9 - - 0.0
22/02:30pm 21.4 19.0 9.9 48 6.3 WSW 13 28 7 15 - - 0.0
22/02:00pm 22.1 20.3 10.9 49 6.3 WSW 11 20 6 11 - - 0.0
22/01:30pm 21.0 19.2 9.3 47 6.4 SSW 9 17 5 9 - - 0.0
22/01:00pm 20.6 18.7 8.9 47 6.3 WSW 9 17 5 9 - - 0.0
22/12:30pm 20.4 19.0 9.0 48 6.1 SSW 6 15 3 8 - - 0.0
22/12:00pm 19.7 18.2 9.0 50 5.7 W 7 11 4 6 - - 0.0
22/11:30am 18.2 16.4 7.9 51 5.4 S 7 13 4 7 - - 0.0
22/11:00am 17.3 15.6 8.4 56 4.6 SW 7 15 4 8 - - 0.0
22/10:30am 16.8 14.1 7.4 54 4.8 SSW 11 17 6 9 - - 0.0
22/10:00am 16.1 13.6 8.1 59 4.1 S 11 17 6 9 - - 0.0
22/09:30am 15.7 13.2 8.2 61 3.9 S 11 20 6 11 - - 0.0
22/09:00am 15.6 12.8 8.6 63 3.6 SE 13 22 7 12 - - 0.0
22/08:30am 14.2 12.0 7.9 66 3.2 SE 9 15 5 8 - - 0.0
22/08:00am 13.9 12.1 7.9 67 3.0 SSE 7 11 4 6 - - 0.0
22/07:30am 13.1 11.1 8.8 75 2.2 SE 9 15 5 8 - - 0.0
22/07:00am 11.2 9.5 8.4 83 1.4 SE 7 11 4 6 - - 0.0
22/06:30am 10.1 7.4 7.3 83 1.4 SSE 11 15 6 8 - - 0.0
22/06:00am 10.2 7.5 7.4 83 1.4 SSE 11 15 6 8 - - 0.0
22/05:30am 10.1 7.4 7.2 82 1.4 SSE 11 13 6 7 - - 0.0
22/05:00am 10.1 7.3 7.0 81 1.5 SSE 11 13 6 7 - - 0.0
22/04:30am 10.1 7.2 6.6 79 1.7 SSE 11 15 6 8 - - 0.0
22/04:00am 10.3 7.0 6.6 78 1.8 SSE 13 20 7 11 - - 0.0
22/03:30am 10.5 7.2 6.5 76 1.9 SSE 13 20 7 11 - - 0.0
22/03:00am 10.3 6.9 6.1 75 2.0 SSE 13 17 7 9 - - 0.0
22/02:30am 10.4 7.0 6.0 74 2.1 SSE 13 20 7 11 - - 0.0
22/02:00am 10.3 6.9 5.7 73 2.2 S 13 20 7 11 - - 0.0
22/01:30am 10.7 7.3 6.1 73 2.2 SSE 13 17 7 9 - - 0.0
22/01:00am 11.0 7.7 6.2 72 2.3 SSE 13 17 7 9 - - 0.0
22/12:30am 11.0 7.7 6.4 73 2.2 SSE 13 17 7 9 - - 0.0
22/12:00am 10.8 7.5 6.2 73 2.2 S 13 15 7 8 - - 0.0
 
Date/Time
WST
Temp
°C
App
Temp
°C
Dew
Point
°C
Rel
Hum
%
Delta-T
°C
Wind Press
QNH
hPa
Press
MSL
hPa
Rain since
9am
mm
Dir  Spd
km/h
Gust
km/h
Spd
kts
Gust
kts
21/11:30pm 11.2 8.3 6.3 72 2.3 S 11 15 6 8 - - 0.0
21/11:00pm 11.9 9.1 6.8 71 2.5 SSW 11 15 6 8 - - 0.0
21/10:30pm 12.4 9.3 7.1 70 2.6 SSW 13 20 7 11 - - 0.0
21/10:00pm 12.7 9.6 7.2 69 2.7 SW 13 22 7 12 - - 0.0
21/09:30pm 12.7 9.8 6.7 67 2.9 SW 11 20 6 11 - - 0.0
21/09:00pm 12.9 9.7 6.9 67 3.0 SW 13 20 7 11 - - 0.0
21/08:30pm 13.1 9.9 6.9 66 3.1 SW 13 20 7 11 - - 0.0
21/08:00pm 13.5 10.8 7.3 66 3.1 SW 11 22 6 12 - - 0.0
21/07:30pm 14.1 11.1 7.9 66 3.1 SW 13 26 7 14 - - 0.0
21/07:00pm 14.6 10.8 7.4 62 3.6 SW 17 30 9 16 - - 0.0
21/06:30pm 15.2 10.7 7.0 58 4.1 SW 20 39 11 21 - - 0.0
21/06:00pm 16.0 10.6 6.4 53 4.8 SW 24 41 13 22 - - 0.0
21/05:30pm 16.8 12.0 7.4 54 4.8 SW 22 33 12 18 - - 0.0
21/05:00pm 17.1 12.4 7.7 54 4.8 SW 22 41 12 22 - - 0.0
21/04:30pm 17.6 11.2 7.1 50 5.4 SW 30 48 16 26 - - 0.0
21/04:29pm 17.6 11.2 7.1 50 5.4 SW 30 48 16 26 - - 0.0
21/04:00pm 18.1 12.2 6.0 45 6.1 SW 26 43 14 23 - - 0.0
21/03:45pm 17.9 11.4 4.5 41 6.5 WSW 28 48 15 26 - - 0.0
21/03:30pm 18.6 13.5 5.8 43 6.4 WSW 22 41 12 22 - - 0.0
21/03:03pm 18.3 11.5 5.2 42 6.5 SW 30 48 16 26 - - 0.0
21/03:00pm 17.9 10.7 5.2 43 6.3 SW 32 48 17 26 - - 0.0
21/02:31pm 18.1 11.7 5.3 43 6.3 WSW 28 46 15 25 - - 0.0
21/02:30pm 18.1 11.3 5.3 43 6.3 WSW 30 46 16 25 - - 0.0
21/02:00pm 18.8 12.4 6.9 46 6.1 WSW 30 63 16 34 - - 0.0
21/01:39pm 19.2 13.0 6.0 42 6.7 WSW 28 52 15 28 - - 0.0
21/01:30pm 18.4 12.4 5.3 42 6.5 WSW 26 43 14 23 - - 0.0
21/01:00pm 18.5 11.9 4.3 39 6.9 WSW 28 50 15 27 - - 0.0
21/12:53pm 18.0 11.2 3.1 37 7.0 WSW 28 50 15 27 - - 0.0
21/12:30pm 17.8 11.6 6.0 46 5.9 WSW 28 43 15 23 - - 0.0
21/12:00pm 18.2 12.4 7.9 51 5.4 WSW 28 54 15 29 - - 0.0
21/11:52am 18.3 12.3 7.1 48 5.7 WSW 28 54 15 29 - - 0.0
21/11:30am 17.7 12.7 6.3 47 5.7 SW 22 41 12 22 - - 0.0
21/11:00am 18.0 12.1 7.7 51 5.3 WSW 28 48 15 26 - - 0.0
21/10:31am 17.3 11.3 7.1 51 5.2 WSW 28 46 15 25 - - 0.0
21/10:30am 17.4 11.7 6.9 50 5.3 WSW 26 46 14 25 - - 0.0
21/10:29am 17.2 11.1 6.4 49 5.4 WSW 28 46 15 25 - - 0.0
21/10:00am 16.1 10.9 8.8 62 3.8 WSW 26 43 14 23 - - 0.0
21/09:36am 15.6 10.1 9.1 65 3.4 WSW 28 46 15 25 - - 0.0
21/09:30am 15.7 10.8 9.8 68 3.1 WSW 26 43 14 23 - - 0.0
21/09:18am 15.6 10.7 11.2 75 2.4 SW 28 50 15 27 - - 0.0
21/09:00am 15.2 11.5 12.7 85 1.4 WSW 24 43 13 23 - - 0.4
21/08:30am 14.3 11.1 13.0 92 0.7 SW 22 41 12 22 - - 0.4
21/08:00am 14.1 11.4 12.8 92 0.7 WSW 19 30 10 16 - - 0.4
21/07:30am 13.6 9.3 12.0 90 0.9 WSW 26 48 14 26 - - 0.4
21/07:25am 13.8 9.5 12.0 89 1.0 W 26 48 14 26 - - 0.0
21/07:00am 14.3 11.3 12.5 89 1.0 WSW 20 39 11 21 - - 0.0
21/06:30am 14.9 10.2 12.0 83 1.6 W 28 50 15 27 - - 0.0
21/06:17am 14.5 9.7 11.5 82 1.6 W 28 46 15 25 - - 0.0
21/06:00am 15.1 10.4 10.5 74 2.5 W 26 43 14 23 - - 0.0
21/05:30am 15.0 11.3 10.2 73 2.6 W 20 39 11 21 - - 0.0
21/05:00am 14.6 10.5 10.2 75 2.3 W 22 35 12 19 - - 0.0
21/04:30am 14.5 11.0 10.3 76 2.2 W 19 30 10 16 - - 0.0
21/04:00am 14.5 11.6 9.7 73 2.5 W 15 26 8 14 - - 0.0
21/03:30am 14.6 12.1 9.6 72 2.6 W 13 24 7 13 - - 0.0
21/03:00am 14.7 12.3 9.9 73 2.5 W 13 22 7 12 - - 0.0
21/02:30am 14.7 12.5 9.5 71 2.7 W 11 22 6 12 - - 0.0
21/02:00am 14.9 12.1 9.9 72 2.7 WSW 15 24 8 13 - - 0.0
21/01:30am 15.0 11.5 10.2 73 2.6 WSW 19 30 10 16 - - 0.0
21/01:00am 14.9 12.1 9.9 72 2.7 WSW 15 24 8 13 - - 0.0
21/12:30am 15.0 11.8 10.0 72 2.7 WSW 17 26 9 14 - - 0.0
21/12:00am 14.8 11.7 10.2 74 2.5 WSW 17 30 9 16 - - 0.0
 
Date/Time
WST
Temp
°C
App
Temp
°C
Dew
Point
°C
Rel
Hum
%
Delta-T
°C
Wind Press
QNH
hPa
Press
MSL
hPa
Rain since
9am
mm
Dir  Spd
km/h
Gust
km/h
Spd
kts
Gust
kts
20/11:30pm 14.8 11.7 10.2 74 2.5 WSW 17 28 9 15 - - 0.0
20/11:00pm 15.1 12.2 10.9 76 2.3 WSW 17 30 9 16 - - 0.0
20/10:30pm 15.3 13.2 11.3 77 2.2 WSW 13 17 7 9 - - 0.0
20/10:00pm 16.0 12.8 12.0 77 2.2 WSW 20 35 11 19 - - 0.0
20/09:30pm 16.3 13.0 12.8 80 2.0 SW 22 41 12 22 - - 0.0
20/09:00pm 16.5 13.3 13.2 81 1.9 WSW 22 39 12 21 - - 0.0
20/08:30pm 16.6 13.9 13.5 82 1.8 WSW 20 30 11 16 - - 0.0
20/08:00pm 16.5 14.0 13.4 82 1.8 WSW 19 32 10 17 - - 0.0

Other Formats:

Comma delimited format used in spreadsheet applications
http://www.bom.gov.au/fwo/IDW60801/IDW60801.95610.axf

JavaScript Object Notation format (JSON) in row-major order
http://www.bom.gov.au/fwo/IDW60801/IDW60801.95610.json